createdAt,value
2018-01-16T00:02:06.459Z,94335
2018-01-16T00:04:35.857Z,94334
2018-01-16T00:07:04.798Z,94338
2018-01-16T00:09:40.690Z,94335
2018-01-16T00:12:09.642Z,94326
2018-01-16T00:14:39.366Z,94329
2018-01-16T00:17:09.125Z,94320
2018-01-16T00:19:38.071Z,94315
2018-01-16T00:22:07.791Z,94319
2018-01-16T00:24:36.792Z,94310
2018-01-16T00:27:05.895Z,94306
2018-01-16T00:29:59.712Z,94303
2018-01-16T00:32:29.759Z,94299
2018-01-16T00:34:58.855Z,94283
2018-01-16T00:37:27.894Z,94303
2018-01-16T00:39:56.850Z,94289
2018-01-16T00:42:29.138Z,94289
2018-01-16T00:44:58.094Z,94270
2018-01-16T00:47:27.546Z,94257
2018-01-16T00:49:56.498Z,94270
2018-01-16T00:52:25.463Z,94262
2018-01-16T00:54:55.158Z,94253
2018-01-16T00:57:24.143Z,94275
2018-01-16T00:59:54.021Z,94255
2018-01-16T01:02:22.963Z,94238
2018-01-16T01:04:51.929Z,94232
2018-01-16T01:07:21.826Z,94241
2018-01-16T01:09:51.051Z,94243
2018-01-16T01:12:20.694Z,94249
2018-01-16T01:14:49.658Z,94237
2018-01-16T01:17:18.598Z,94241
2018-01-16T01:19:47.565Z,94238
2018-01-16T01:22:17.279Z,94224
2018-01-16T01:24:47.008Z,94223
2018-01-16T01:27:15.964Z,94222
2018-01-16T01:29:49.530Z,94211
2018-01-16T01:32:18.478Z,94202
2018-01-16T01:34:48.210Z,94214
2018-01-16T01:37:17.157Z,94205
2018-01-16T01:39:46.126Z,93832
2018-01-16T01:42:15.180Z,94198
2018-01-16T01:44:44.922Z,94205
2018-01-16T01:47:20.409Z,94210
2018-01-16T01:49:50.166Z,94202
2018-01-16T01:52:19.117Z,94196
2018-01-16T01:54:48.842Z,94192
2018-01-16T01:57:17.815Z,94183
2018-01-16T01:59:47.522Z,94170
2018-01-16T02:02:17.255Z,94171
2018-01-16T02:04:46.211Z,94180
2018-01-16T02:07:15.170Z,94163
2018-01-16T02:09:44.106Z,94168
2018-01-16T02:12:13.842Z,94156
2018-01-16T02:14:42.779Z,94155
2018-01-16T02:17:11.751Z,94155
2018-01-16T02:19:41.636Z,94155
2018-01-16T02:22:10.600Z,94146
2018-01-16T02:24:39.558Z,94147
2018-01-16T02:27:08.517Z,94148
2018-01-16T02:29:37.478Z,94157
2018-01-16T02:32:07.194Z,94157
2018-01-16T02:34:36.927Z,94146
2018-01-16T02:37:05.889Z,94138
2018-01-16T02:39:34.830Z,94143
2018-01-16T02:42:03.951Z,94143
2018-01-16T02:44:32.893Z,94140
2018-01-16T02:47:01.844Z,94146
2018-01-16T02:49:30.802Z,94137
2018-01-16T02:51:59.754Z,94134
2018-01-16T02:54:29.482Z,94129
2018-01-16T02:56:58.428Z,94121
2018-01-16T02:59:27.395Z,94134
2018-01-16T03:01:56.342Z,94133
2018-01-16T03:04:26.074Z,94123
2018-01-16T03:06:55.018Z,94114
2018-01-16T03:09:23.986Z,94113
2018-01-16T03:11:52.944Z,94115
2018-01-16T03:14:21.903Z,94104
2018-01-16T03:16:50.846Z,94104
2018-01-16T03:19:21.786Z,94101
2018-01-16T03:21:50.733Z,94105
2018-01-16T03:24:20.629Z,94095
2018-01-16T03:26:49.578Z,94091
2018-01-16T03:29:18.530Z,94102
2018-01-16T03:31:47.491Z,94116
2018-01-16T03:34:16.435Z,94113
2018-01-16T03:36:45.409Z,94103
2018-01-16T03:39:15.113Z,94094
2018-01-16T03:41:44.834Z,94086
2018-01-16T03:44:14.558Z,94085
2018-01-16T03:46:43.517Z,94088
2018-01-16T03:49:12.467Z,94086
2018-01-16T03:51:41.558Z,94071
2018-01-16T03:54:10.506Z,94071
2018-01-16T03:56:40.226Z,94047
2018-01-16T03:59:09.954Z,94033
2018-01-16T04:01:38.896Z,94053
2018-01-16T04:04:07.976Z,94061
2018-01-16T04:06:36.886Z,94063
2018-01-16T04:09:05.854Z,94067
2018-01-16T04:11:34.799Z,94070
2018-01-16T04:14:04.531Z,94058
2018-01-16T04:16:33.522Z,94065
2018-01-16T04:19:02.505Z,94040
2018-01-16T04:21:32.318Z,94050
2018-01-16T04:24:01.258Z,94051
2018-01-16T04:26:32.158Z,94038
2018-01-16T04:29:01.103Z,94037
2018-01-16T04:31:30.063Z,94045
2018-01-16T04:33:59.006Z,94042
2018-01-16T04:36:28.745Z,94028
2018-01-16T04:38:57.703Z,94021
2018-01-16T04:41:27.434Z,94013
2018-01-16T04:43:56.378Z,94009
2018-01-16T04:46:25.354Z,94005
2018-01-16T04:48:54.299Z,93978
2018-01-16T04:51:23.258Z,93977
2018-01-16T04:53:52.222Z,93977
2018-01-16T04:56:21.181Z,93973
2018-01-16T04:58:50.302Z,93980
2018-01-16T05:01:19.246Z,93963
2018-01-16T05:03:54.744Z,93963
2018-01-16T05:06:23.687Z,93967
2018-01-16T05:08:53.413Z,93969
2018-01-16T05:11:22.374Z,93958
2018-01-16T05:13:51.316Z,93958
2018-01-16T05:16:20.281Z,93959
2018-01-16T05:18:49.242Z,93958
2018-01-16T05:21:18.202Z,93943
2018-01-16T05:24:04.398Z,93955
2018-01-16T05:26:33.370Z,93950
2018-01-16T05:29:02.338Z,93956
2018-01-16T05:31:32.118Z,93947
2018-01-16T05:34:01.062Z,93952
2018-01-16T05:36:30.030Z,93946
2018-01-16T05:38:59.734Z,93948
2018-01-16T05:41:30.402Z,93946
2018-01-16T05:43:59.346Z,93938
2018-01-16T05:46:28.398Z,93951
2018-01-16T05:48:57.337Z,93934
2018-01-16T05:51:26.295Z,93909
2018-01-16T05:54:01.128Z,93901
2018-01-16T05:56:30.066Z,93902
2018-01-16T05:58:59.797Z,93905
2018-01-16T06:01:34.523Z,93906
2018-01-16T06:04:03.483Z,93916
2018-01-16T06:06:33.194Z,93920
2018-01-16T06:09:02.927Z,93895
2018-01-16T06:11:32.971Z,93896
2018-01-16T06:14:08.476Z,93909
2018-01-16T06:16:37.529Z,93923
2018-01-16T06:19:06.828Z,93888
2018-01-16T06:21:38.677Z,93894
2018-01-16T06:24:09.119Z,93884
2018-01-16T06:26:38.676Z,93879
2018-01-16T06:29:07.876Z,93875
2018-01-16T06:31:37.280Z,93860
2018-01-16T06:34:07.050Z,93860
2018-01-16T06:36:38.895Z,93851
2018-01-16T06:39:09.121Z,93847
2018-01-16T06:41:38.298Z,93832
2018-01-16T06:44:07.627Z,93842
2018-01-16T06:46:36.979Z,93838
2018-01-16T06:49:06.090Z,93857
2018-01-16T06:51:35.168Z,93879
2018-01-16T06:54:04.260Z,93869
2018-01-16T06:56:37.014Z,93874
2018-01-16T06:59:07.953Z,93877
2018-01-16T07:01:37.824Z,93885
2018-01-16T07:04:07.906Z,93889
2018-01-16T07:06:36.871Z,93891
2018-01-16T07:09:05.811Z,93893
2018-01-16T07:11:34.828Z,93885
2018-01-16T07:14:03.762Z,93893
2018-01-16T07:16:32.702Z,93895
2018-01-16T07:19:01.674Z,93895
2018-01-16T07:21:30.662Z,93884
2018-01-16T07:23:59.606Z,93890
2018-01-16T07:26:28.549Z,93888
2018-01-16T07:28:57.524Z,93903
2018-01-16T07:31:26.466Z,93898
2018-01-16T07:33:55.433Z,93898
2018-01-16T07:36:24.374Z,93894
2018-01-16T07:38:54.108Z,93897
2018-01-16T07:41:23.046Z,93893
2018-01-16T07:43:52.019Z,93908
2018-01-16T07:46:20.995Z,93898
2018-01-16T07:48:50.070Z,93914
2018-01-16T07:51:19.018Z,93920
2018-01-16T07:53:47.964Z,93929
2018-01-16T07:56:16.932Z,93930
2018-01-16T07:58:46.642Z,93927
2018-01-16T08:01:16.385Z,93935
2018-01-16T08:03:45.325Z,93903
2018-01-16T08:06:14.319Z,93935
2018-01-16T08:08:43.265Z,93911
2018-01-16T08:11:12.234Z,93928
2018-01-16T08:13:41.181Z,93936
2018-01-16T08:16:10.269Z,93934
2018-01-16T08:18:39.216Z,93931
2018-01-16T08:21:08.168Z,93933
2018-01-16T08:23:37.134Z,93940
2018-01-16T08:26:06.087Z,93938
2018-01-16T08:28:35.071Z,93942
2018-01-16T08:31:04.790Z,93946
2018-01-16T08:33:33.790Z,93952
2018-01-16T08:36:02.738Z,93948
2018-01-16T08:38:31.705Z,93941
2018-01-16T08:41:00.659Z,93944
2018-01-16T08:43:29.630Z,93959
2018-01-16T08:45:59.338Z,93948
2018-01-16T08:48:28.314Z,93968
2018-01-16T08:50:57.255Z,93975
2018-01-16T08:53:26.344Z,93978
2018-01-16T08:55:55.302Z,93976
2018-01-16T08:58:24.248Z,93973
2018-01-16T09:00:53.218Z,93969
2018-01-16T09:03:22.177Z,93976
2018-01-16T09:05:51.131Z,93977
2018-01-16T09:08:20.094Z,93973
2018-01-16T09:10:49.042Z,93987
2018-01-16T09:13:18.014Z,93981
2018-01-16T09:15:46.957Z,93964
2018-01-16T09:18:16.667Z,93972
2018-01-16T09:20:46.403Z,93976
2018-01-16T09:23:15.346Z,93971
2018-01-16T09:25:44.310Z,93996
2018-01-16T09:28:13.262Z,94001
2018-01-16T09:30:42.223Z,93993
2018-01-16T09:33:11.174Z,93989
2018-01-16T09:35:40.145Z,93990
2018-01-16T09:38:09.090Z,93988
2018-01-16T09:40:38.054Z,93983
2018-01-16T09:43:07.002Z,93979
2018-01-16T09:45:36.747Z,93986
2018-01-16T09:48:29.793Z,93980
2018-01-16T09:50:58.758Z,93979
2018-01-16T09:53:28.470Z,93984
2018-01-16T09:55:58.202Z,93992
2018-01-16T09:58:27.142Z,93984
2018-01-16T10:00:56.119Z,93970
2018-01-16T10:03:25.073Z,93954
2018-01-16T10:05:54.038Z,93968
2018-01-16T10:08:23.760Z,93950
2018-01-16T10:10:53.490Z,93965
2018-01-16T10:13:22.435Z,93966
2018-01-16T10:15:51.401Z,93956
2018-01-16T10:18:20.358Z,93945
2018-01-16T10:20:49.330Z,93941
2018-01-16T10:23:19.049Z,93948
2018-01-16T10:25:49.012Z,93931
2018-01-16T10:28:17.966Z,93944
2018-01-16T10:30:46.935Z,93925
2018-01-16T10:33:15.878Z,93936
2018-01-16T10:35:44.856Z,93928
2018-01-16T10:38:13.776Z,93938
2018-01-16T10:40:42.730Z,93933
2018-01-16T10:43:11.684Z,93901
2018-01-16T10:45:40.765Z,93903
2018-01-16T10:48:09.710Z,93900
2018-01-16T10:50:38.656Z,93887
2018-01-16T10:53:07.618Z,93884
2018-01-16T10:55:36.570Z,93880
2018-01-16T10:58:05.538Z,93873
2018-01-16T11:00:34.477Z,93871
2018-01-16T11:03:03.455Z,93880
2018-01-16T11:05:32.394Z,93879
2018-01-16T11:08:01.378Z,93877
2018-01-16T11:10:30.334Z,93872
2018-01-16T11:12:59.294Z,93873
2018-01-16T11:15:28.234Z,93884
2018-01-16T11:17:57.214Z,93875
2018-01-16T11:20:26.167Z,93868
2018-01-16T11:22:55.896Z,93866
2018-01-16T11:25:45.678Z,93884
2018-01-16T11:28:14.662Z,93872
2018-01-16T11:30:44.387Z,93870
2018-01-16T11:33:13.332Z,93859
2018-01-16T11:35:42.294Z,93833
2018-01-16T11:38:11.246Z,93849
2018-01-16T11:40:40.977Z,93848
2018-01-16T11:43:09.934Z,93830
2018-01-16T11:45:38.923Z,93838
2018-01-16T11:48:07.866Z,93816
2018-01-16T11:50:36.838Z,93828
2018-01-16T11:53:05.782Z,93804
2018-01-16T11:55:34.750Z,93814
2018-01-16T11:58:03.698Z,93828
2018-01-16T12:00:32.672Z,93814
2018-01-16T12:03:01.620Z,93811
2018-01-16T12:05:30.595Z,93798
2018-01-16T12:07:59.564Z,93818
2018-01-16T12:10:29.300Z,93734
2018-01-16T12:12:58.235Z,93808
2018-01-16T12:15:27.213Z,93875
2018-01-16T12:17:56.163Z,93812
2018-01-16T12:20:25.895Z,93819
2018-01-16T12:22:54.846Z,93801
2018-01-16T12:25:35.226Z,93805
2018-01-16T12:28:04.171Z,93810
2018-01-16T12:30:33.179Z,93782
2018-01-16T12:33:19.126Z,93790
2018-01-16T12:35:48.097Z,93797
2018-01-16T12:38:17.038Z,93814
2018-01-16T12:40:46.003Z,93802
2018-01-16T12:43:14.955Z,93806
2018-01-16T12:45:44.838Z,93811
2018-01-16T12:48:13.786Z,93812
2018-01-16T12:50:51.271Z,93826
2018-01-16T12:53:20.319Z,93826
2018-01-16T12:55:49.851Z,93821
2018-01-16T12:58:19.594Z,93826
2018-01-16T13:00:48.546Z,93838
2018-01-16T13:03:38.386Z,93907
2018-01-16T13:06:07.348Z,93941
2018-01-16T13:08:36.367Z,93941
2018-01-16T13:11:05.334Z,93943
2018-01-16T13:13:34.298Z,93941
2018-01-16T13:16:03.240Z,93663
2018-01-16T13:18:32.194Z,93937
2018-01-16T13:21:01.903Z,93953
2018-01-16T13:23:31.634Z,93953
2018-01-16T13:26:00.586Z,93955
2018-01-16T13:28:29.549Z,93941
2018-01-16T13:30:58.489Z,93930
2018-01-16T13:33:28.210Z,93938
2018-01-16T13:35:57.175Z,93916
2018-01-16T13:38:26.134Z,93901
2018-01-16T13:40:55.083Z,93890
2018-01-16T13:43:24.053Z,93881
2018-01-16T13:45:52.986Z,93847
2018-01-16T13:48:21.951Z,93856
2018-01-16T13:50:51.662Z,93898
2018-01-16T13:53:21.391Z,93896
2018-01-16T13:55:50.330Z,93891
2018-01-16T13:58:19.290Z,93904
2018-01-16T14:00:48.232Z,93908
2018-01-16T14:03:17.170Z,93907
2018-01-16T14:05:46.130Z,93926
2018-01-16T14:08:15.838Z,93927
2018-01-16T14:10:45.559Z,93911
2018-01-16T14:13:14.499Z,93902
2018-01-16T14:15:43.458Z,93914
2018-01-16T14:18:12.399Z,93927
2018-01-16T14:20:41.360Z,93924
2018-01-16T14:23:10.305Z,93921
2018-01-16T14:25:39.386Z,93929
2018-01-16T14:28:08.330Z,93944
2018-01-16T14:30:37.275Z,93963
2018-01-16T14:33:07.007Z,93952
2018-01-16T14:35:35.942Z,93953
2018-01-16T14:38:04.906Z,93955
2018-01-16T14:40:33.842Z,93955
2018-01-16T14:43:02.803Z,93962
2018-01-16T14:45:31.745Z,93982
2018-01-16T14:48:01.786Z,93980
2018-01-16T14:50:30.752Z,93983
2018-01-16T14:52:59.705Z,93988
2018-01-16T14:55:28.654Z,93990
2018-01-16T14:57:57.618Z,93985
2018-01-16T15:00:26.559Z,93992
2018-01-16T15:02:55.556Z,94007
2018-01-16T15:05:24.519Z,93998
2018-01-16T15:07:54.234Z,94021
2018-01-16T15:10:23.194Z,94017
2018-01-16T15:12:52.203Z,94021
2018-01-16T15:15:21.317Z,94009
2018-01-16T15:17:51.011Z,94021
2018-01-16T15:20:20.734Z,94016
2018-01-16T15:22:49.673Z,94007
2018-01-16T15:25:18.743Z,93988
2018-01-16T15:27:47.716Z,93994
2018-01-16T15:30:16.796Z,93995
2018-01-16T15:32:46.527Z,93989
2018-01-16T15:35:15.481Z,94000
2018-01-16T15:37:44.486Z,94007
2018-01-16T15:40:14.199Z,94008
2018-01-16T15:42:43.930Z,94009
2018-01-16T15:45:13.318Z,94030
2018-01-16T15:47:43.085Z,94013
2018-01-16T15:50:12.023Z,94018
2018-01-16T15:52:40.981Z,93995
2018-01-16T15:55:09.932Z,94011
2018-01-16T15:57:38.886Z,93991
2018-01-16T16:00:08.598Z,94001
2018-01-16T16:02:38.330Z,94026
2018-01-16T16:05:07.288Z,94027
2018-01-16T16:07:36.245Z,94039
2018-01-16T16:10:05.185Z,94035
2018-01-16T16:12:34.910Z,94020
2018-01-16T16:15:03.852Z,94026
2018-01-16T16:17:32.823Z,94015
2018-01-16T16:20:01.767Z,93988
2018-01-16T16:22:31.478Z,93989
2018-01-16T16:25:01.202Z,94007
2018-01-16T16:27:30.148Z,94025
2018-01-16T16:29:59.125Z,94020
2018-01-16T16:32:28.315Z,94031
2018-01-16T16:35:09.961Z,94028
2018-01-16T16:37:50.011Z,94014
2018-01-16T16:40:19.786Z,94017
2018-01-16T16:42:48.847Z,94019
2018-01-16T16:45:17.803Z,94019
2018-01-16T16:47:47.587Z,94025
2018-01-16T16:50:16.671Z,94033
2018-01-16T16:52:45.591Z,94032
2018-01-16T16:55:14.603Z,94040
2018-01-16T16:57:43.550Z,94039
2018-01-16T17:00:12.611Z,94032
2018-01-16T17:02:41.542Z,94037
2018-01-16T17:05:11.448Z,94034
2018-01-16T17:07:40.429Z,94031
2018-01-16T17:10:09.378Z,94021
2018-01-16T17:12:39.098Z,94030
2018-01-16T17:15:08.114Z,94049
2018-01-16T17:17:37.062Z,94053
2018-01-16T17:20:07.983Z,94036
2018-01-16T17:22:36.927Z,94026
2018-01-16T17:25:12.700Z,94026
2018-01-16T17:27:41.702Z,94035
2018-01-16T17:30:10.697Z,94027
2018-01-16T17:32:39.634Z,94014
2018-01-16T17:35:08.592Z,94002
2018-01-16T17:37:37.622Z,94002
2018-01-16T17:40:06.749Z,94005
2018-01-16T17:42:35.704Z,93993
2018-01-16T17:45:05.506Z,94002
2018-01-16T17:47:35.226Z,94000
2018-01-16T17:50:04.182Z,93987
2018-01-16T17:52:33.138Z,93989
2018-01-16T17:55:02.075Z,93989
2018-01-16T17:57:31.025Z,93969
2018-01-16T17:59:59.962Z,93989
2018-01-16T18:02:29.689Z,93996
2018-01-16T18:04:59.406Z,94010
2018-01-16T18:07:28.510Z,94012
2018-01-16T18:09:57.595Z,94026
2018-01-16T18:12:26.568Z,94016
2018-01-16T18:14:56.270Z,94018
2018-01-16T18:17:25.260Z,94003
2018-01-16T18:19:54.185Z,93991
2018-01-16T18:22:23.135Z,94006
2018-01-16T18:24:52.275Z,94025
2018-01-16T18:27:22.132Z,93971
2018-01-16T18:29:51.087Z,93968
2018-01-16T18:32:20.065Z,93975
2018-01-16T18:34:48.987Z,93972
2018-01-16T18:37:17.926Z,93986
2018-01-16T18:39:47.654Z,93997
2018-01-16T18:42:16.602Z,93993
2018-01-16T18:44:45.566Z,93991
2018-01-16T18:47:14.511Z,93991
2018-01-16T18:49:43.738Z,93999
2018-01-16T18:52:12.648Z,93986
2018-01-16T18:54:41.577Z,93990
2018-01-16T18:57:10.545Z,93984
2018-01-16T18:59:39.498Z,93989
2018-01-16T19:02:08.458Z,94000
2018-01-16T19:04:37.402Z,93995
2018-01-16T19:07:06.359Z,94005
2018-01-16T19:09:36.071Z,94011
2018-01-16T19:12:05.802Z,94023
2018-01-16T19:14:37.755Z,94029
2018-01-16T19:17:06.768Z,94039
2018-01-16T19:19:36.848Z,94032
2018-01-16T19:22:06.196Z,94032
2018-01-16T19:24:35.719Z,94033
2018-01-16T19:27:06.108Z,94015
2018-01-16T19:29:36.128Z,94013
2018-01-16T19:32:05.322Z,94006
2018-01-16T19:34:34.278Z,93988
2018-01-16T19:37:03.214Z,93995
2018-01-16T19:39:32.174Z,93994
2018-01-16T19:42:01.878Z,93990
2018-01-16T19:44:31.610Z,94001
2018-01-16T19:47:04.604Z,93999
2018-01-16T19:49:33.541Z,93977
2018-01-16T19:52:02.506Z,93961
2018-01-16T19:54:31.615Z,93974
2018-01-16T19:57:01.557Z,93983
2018-01-16T19:59:30.552Z,93987
2018-01-16T20:02:24.328Z,94006
2018-01-16T20:05:03.257Z,94004
2018-01-16T20:07:46.080Z,93989
2018-01-16T20:15:57.005Z,93971
2018-01-16T20:18:36.800Z,94000
2018-01-16T20:21:33.347Z,93996
2018-01-16T20:24:10.723Z,93975
2018-01-16T20:26:42.257Z,93984
2018-01-16T20:29:16.461Z,93979
2018-01-16T20:31:56.554Z,93977
2018-01-16T20:34:36.628Z,93974
2018-01-16T20:37:10.992Z,93973
2018-01-16T20:39:47.502Z,93998
2018-01-16T20:42:29.173Z,94010
2018-01-16T20:47:47.526Z,94022
2018-01-16T20:50:21.996Z,94005
2018-01-16T20:52:57.390Z,94015
2018-01-16T20:55:32.291Z,94016
2018-01-16T20:58:12.998Z,93993
2018-01-16T21:00:49.779Z,93993
2018-01-16T21:06:16.936Z,93996
2018-01-16T21:08:53.281Z,93993
2018-01-16T21:11:32.605Z,93987
2018-01-16T21:14:13.106Z,93963
2018-01-16T21:16:54.692Z,93966
2018-01-16T21:22:33.592Z,93946
2018-01-16T21:25:08.749Z,93933
2018-01-16T21:33:56.156Z,93900
2018-01-16T22:14:31.053Z,93964
2018-01-16T22:17:14.281Z,93958
2018-01-16T22:19:50.242Z,93957
2018-01-16T22:22:36.841Z,93951
2018-01-16T22:25:35.958Z,93945
2018-01-16T22:28:33.698Z,93947
2018-01-16T22:31:14.293Z,93938
2018-01-16T22:33:48.412Z,93930
2018-01-16T22:36:21.254Z,93937
2018-01-16T22:38:51.710Z,93940
2018-01-16T22:43:59.790Z,93930
2018-01-16T22:46:31.038Z,93932
2018-01-16T22:49:01.105Z,93924
2018-01-16T22:51:36.787Z,93910
2018-01-16T22:54:06.683Z,93911
2018-01-16T22:56:38.032Z,93910
2018-01-16T22:59:08.359Z,93910
2018-01-16T23:01:38.043Z,93907
2018-01-16T23:04:08.215Z,93916
2018-01-16T23:06:40.117Z,93902
2018-01-16T23:09:11.379Z,93903
2018-01-16T23:11:42.134Z,93895
2018-01-16T23:14:17.671Z,93894
2018-01-16T23:16:48.268Z,93889
2018-01-16T23:19:18.634Z,93883
2018-01-16T23:21:51.010Z,93884
2018-01-16T23:24:21.532Z,93883
2018-01-16T23:26:51.933Z,93886
2018-01-16T23:29:22.579Z,93896
2018-01-16T23:31:52.949Z,93900
2018-01-16T23:34:22.936Z,93891
2018-01-16T23:36:55.263Z,93887
2018-01-16T23:39:25.473Z,93793
2018-01-16T23:41:57.915Z,93869
2018-01-16T23:44:31.623Z,93862
2018-01-16T23:47:02.589Z,93851
2018-01-16T23:49:31.665Z,93849
2018-01-16T23:52:02.488Z,93839
2018-01-16T23:54:34.096Z,93844
2018-01-16T23:57:04.298Z,93818
2018-01-16T23:59:34.701Z,93827
